sensor_id;sensor_type;location;lat;lon;timestamp;P1;durP1;ratioP1;P2;durP2;ratioP2
25409;SDS011;13339;50.840;4.346;2022-07-23T00:00:52;20.90;;;14.47;;
25409;SDS011;13339;50.840;4.346;2022-07-23T00:03:17;18.37;;;14.93;;
25409;SDS011;13339;50.840;4.346;2022-07-23T00:05:43;19.20;;;14.40;;
25409;SDS011;13339;50.840;4.346;2022-07-23T00:08:08;20.87;;;15.13;;
25409;SDS011;13339;50.840;4.346;2022-07-23T00:10:34;21.23;;;14.87;;
25409;SDS011;13339;50.840;4.346;2022-07-23T00:13:00;23.43;;;16.40;;
25409;SDS011;13339;50.840;4.346;2022-07-23T00:15:26;19.53;;;15.93;;
25409;SDS011;13339;50.840;4.346;2022-07-23T00:17:51;21.53;;;15.63;;
25409;SDS011;13339;50.840;4.346;2022-07-23T00:20:17;19.77;;;15.63;;
25409;SDS011;13339;50.840;4.346;2022-07-23T00:22:49;24.20;;;15.80;;
25409;SDS011;13339;50.840;4.346;2022-07-23T00:25:16;23.47;;;15.10;;
25409;SDS011;13339;50.840;4.346;2022-07-23T00:27:43;20.57;;;16.87;;
25409;SDS011;13339;50.840;4.346;2022-07-23T00:30:09;22.47;;;17.00;;
25409;SDS011;13339;50.840;4.346;2022-07-23T00:32:45;22.07;;;16.33;;
25409;SDS011;13339;50.840;4.346;2022-07-23T00:35:12;21.57;;;16.90;;
25409;SDS011;13339;50.840;4.346;2022-07-23T00:37:38;24.13;;;17.93;;
25409;SDS011;13339;50.840;4.346;2022-07-23T00:40:03;21.40;;;16.03;;
25409;SDS011;13339;50.840;4.346;2022-07-23T00:42:30;27.37;;;15.80;;
25409;SDS011;13339;50.840;4.346;2022-07-23T00:44:57;22.10;;;17.13;;
25409;SDS011;13339;50.840;4.346;2022-07-23T00:47:23;23.37;;;17.07;;
25409;SDS011;13339;50.840;4.346;2022-07-23T00:49:48;24.10;;;17.20;;
25409;SDS011;13339;50.840;4.346;2022-07-23T00:52:14;24.93;;;16.47;;
25409;SDS011;13339;50.840;4.346;2022-07-23T00:54:41;21.93;;;17.40;;
25409;SDS011;13339;50.840;4.346;2022-07-23T00:57:07;22.00;;;17.00;;
25409;SDS011;13339;50.840;4.346;2022-07-23T00:59:33;21.23;;;16.73;;
25409;SDS011;13339;50.840;4.346;2022-07-23T01:01:59;30.00;;;17.77;;
25409;SDS011;13339;50.840;4.346;2022-07-23T01:04:25;20.27;;;16.83;;
25409;SDS011;13339;50.840;4.346;2022-07-23T01:06:51;19.73;;;17.17;;
25409;SDS011;13339;50.840;4.346;2022-07-23T01:09:17;22.37;;;17.43;;
25409;SDS011;13339;50.840;4.346;2022-07-23T01:11:43;21.40;;;17.07;;
25409;SDS011;13339;50.840;4.346;2022-07-23T01:14:09;33.50;;;17.60;;
25409;SDS011;13339;50.840;4.346;2022-07-23T01:16:40;24.17;;;16.83;;
25409;SDS011;13339;50.840;4.346;2022-07-23T01:19:06;21.70;;;17.60;;
25409;SDS011;13339;50.840;4.346;2022-07-23T01:21:36;21.37;;;16.80;;
25409;SDS011;13339;50.840;4.346;2022-07-23T01:24:05;23.73;;;17.50;;
25409;SDS011;13339;50.840;4.346;2022-07-23T01:26:31;26.40;;;18.43;;
25409;SDS011;13339;50.840;4.346;2022-07-23T01:28:57;27.03;;;18.10;;
25409;SDS011;13339;50.840;4.346;2022-07-23T01:31:23;22.10;;;17.43;;
25409;SDS011;13339;50.840;4.346;2022-07-23T01:33:49;22.83;;;17.40;;
25409;SDS011;13339;50.840;4.346;2022-07-23T01:36:14;23.23;;;17.40;;
25409;SDS011;13339;50.840;4.346;2022-07-23T01:38:40;21.87;;;17.37;;
25409;SDS011;13339;50.840;4.346;2022-07-23T01:41:06;23.80;;;18.17;;
25409;SDS011;13339;50.840;4.346;2022-07-23T01:43:31;26.20;;;18.13;;
25409;SDS011;13339;50.840;4.346;2022-07-23T01:45:57;21.53;;;17.73;;
25409;SDS011;13339;50.840;4.346;2022-07-23T01:48:22;20.30;;;17.27;;
25409;SDS011;13339;50.840;4.346;2022-07-23T01:50:48;21.27;;;17.77;;
25409;SDS011;13339;50.840;4.346;2022-07-23T01:53:14;26.07;;;18.03;;
25409;SDS011;13339;50.840;4.346;2022-07-23T01:55:40;23.17;;;17.53;;
25409;SDS011;13339;50.840;4.346;2022-07-23T01:58:06;20.43;;;17.00;;
25409;SDS011;13339;50.840;4.346;2022-07-23T02:00:32;21.43;;;16.40;;
25409;SDS011;13339;50.840;4.346;2022-07-23T02:02:58;18.73;;;16.37;;
25409;SDS011;13339;50.840;4.346;2022-07-23T02:05:24;20.40;;;16.77;;
25409;SDS011;13339;50.840;4.346;2022-07-23T02:07:50;24.23;;;16.83;;
25409;SDS011;13339;50.840;4.346;2022-07-23T02:10:16;22.90;;;17.23;;
25409;SDS011;13339;50.840;4.346;2022-07-23T02:12:42;21.50;;;17.27;;
25409;SDS011;13339;50.840;4.346;2022-07-23T02:15:07;21.80;;;17.07;;
25409;SDS011;13339;50.840;4.346;2022-07-23T02:17:33;19.93;;;16.80;;
25409;SDS011;13339;50.840;4.346;2022-07-23T02:19:59;24.83;;;15.80;;
25409;SDS011;13339;50.840;4.346;2022-07-23T02:22:24;20.00;;;16.83;;
25409;SDS011;13339;50.840;4.346;2022-07-23T02:24:50;29.13;;;17.80;;
25409;SDS011;13339;50.840;4.346;2022-07-23T02:27:16;23.70;;;16.10;;
25409;SDS011;13339;50.840;4.346;2022-07-23T02:29:41;23.77;;;16.37;;
25409;SDS011;13339;50.840;4.346;2022-07-23T02:32:07;25.77;;;17.03;;
25409;SDS011;13339;50.840;4.346;2022-07-23T02:34:32;24.40;;;17.07;;
25409;SDS011;13339;50.840;4.346;2022-07-23T02:36:58;27.73;;;17.67;;
25409;SDS011;13339;50.840;4.346;2022-07-23T02:39:24;26.33;;;18.73;;
25409;SDS011;13339;50.840;4.346;2022-07-23T02:41:49;24.73;;;17.63;;
25409;SDS011;13339;50.840;4.346;2022-07-23T02:44:15;25.33;;;17.97;;
25409;SDS011;13339;50.840;4.346;2022-07-23T02:46:41;24.57;;;17.67;;
25409;SDS011;13339;50.840;4.346;2022-07-23T02:49:06;21.00;;;17.67;;
25409;SDS011;13339;50.840;4.346;2022-07-23T02:51:32;23.67;;;17.50;;
25409;SDS011;13339;50.840;4.346;2022-07-23T02:53:57;26.00;;;17.67;;
25409;SDS011;13339;50.840;4.346;2022-07-23T02:56:23;23.07;;;16.63;;
25409;SDS011;13339;50.840;4.346;2022-07-23T02:58:49;22.10;;;17.97;;
25409;SDS011;13339;50.840;4.346;2022-07-23T03:01:14;24.17;;;17.93;;
25409;SDS011;13339;50.840;4.346;2022-07-23T03:03:40;25.17;;;17.50;;
25409;SDS011;13339;50.840;4.346;2022-07-23T03:06:06;22.40;;;16.87;;
25409;SDS011;13339;50.840;4.346;2022-07-23T03:08:32;22.03;;;17.80;;
25409;SDS011;13339;50.840;4.346;2022-07-23T03:10:57;27.20;;;18.13;;
25409;SDS011;13339;50.840;4.346;2022-07-23T03:13:23;26.20;;;18.20;;
25409;SDS011;13339;50.840;4.346;2022-07-23T03:15:48;31.20;;;18.53;;
25409;SDS011;13339;50.840;4.346;2022-07-23T03:18:14;19.27;;;17.23;;
25409;SDS011;13339;50.840;4.346;2022-07-23T03:20:40;27.40;;;17.50;;
25409;SDS011;13339;50.840;4.346;2022-07-23T03:23:05;24.57;;;18.67;;
25409;SDS011;13339;50.840;4.346;2022-07-23T03:25:31;24.53;;;18.13;;
25409;SDS011;13339;50.840;4.346;2022-07-23T03:27:56;23.00;;;18.10;;
25409;SDS011;13339;50.840;4.346;2022-07-23T03:30:22;23.27;;;17.90;;
25409;SDS011;13339;50.840;4.346;2022-07-23T03:32:48;23.67;;;17.57;;
25409;SDS011;13339;50.840;4.346;2022-07-23T03:35:13;24.30;;;17.70;;
25409;SDS011;13339;50.840;4.346;2022-07-23T03:37:40;26.53;;;17.47;;
25409;SDS011;13339;50.840;4.346;2022-07-23T03:40:06;27.10;;;17.93;;
25409;SDS011;13339;50.840;4.346;2022-07-23T03:42:32;24.97;;;18.13;;
25409;SDS011;13339;50.840;4.346;2022-07-23T03:44:57;27.73;;;19.07;;
25409;SDS011;13339;50.840;4.346;2022-07-23T03:47:23;22.97;;;18.00;;
25409;SDS011;13339;50.840;4.346;2022-07-23T03:49:49;25.60;;;18.63;;
25409;SDS011;13339;50.840;4.346;2022-07-23T03:52:15;22.47;;;18.20;;
25409;SDS011;13339;50.840;4.346;2022-07-23T03:54:40;28.50;;;19.13;;
25409;SDS011;13339;50.840;4.346;2022-07-23T03:57:06;25.60;;;18.27;;
25409;SDS011;13339;50.840;4.346;2022-07-23T03:59:32;27.30;;;19.13;;
25409;SDS011;13339;50.840;4.346;2022-07-23T04:01:57;25.73;;;17.93;;
25409;SDS011;13339;50.840;4.346;2022-07-23T04:04:23;27.30;;;18.63;;
25409;SDS011;13339;50.840;4.346;2022-07-23T04:06:49;25.90;;;17.47;;
25409;SDS011;13339;50.840;4.346;2022-07-23T04:09:14;24.13;;;18.87;;
25409;SDS011;13339;50.840;4.346;2022-07-23T04:11:40;25.60;;;18.30;;
25409;SDS011;13339;50.840;4.346;2022-07-23T04:14:06;27.77;;;18.03;;
25409;SDS011;13339;50.840;4.346;2022-07-23T04:16:32;24.53;;;17.73;;
25409;SDS011;13339;50.840;4.346;2022-07-23T04:18:58;23.10;;;18.67;;
25409;SDS011;13339;50.840;4.346;2022-07-23T04:21:24;26.93;;;18.50;;
25409;SDS011;13339;50.840;4.346;2022-07-23T04:23:49;25.57;;;17.47;;
25409;SDS011;13339;50.840;4.346;2022-07-23T04:26:15;22.03;;;17.47;;
25409;SDS011;13339;50.840;4.346;2022-07-23T04:28:41;23.83;;;17.30;;
25409;SDS011;13339;50.840;4.346;2022-07-23T04:31:06;26.53;;;16.53;;
25409;SDS011;13339;50.840;4.346;2022-07-23T04:33:32;22.73;;;17.00;;
25409;SDS011;13339;50.840;4.346;2022-07-23T04:35:58;27.43;;;17.93;;
25409;SDS011;13339;50.840;4.346;2022-07-23T04:38:23;28.43;;;17.87;;
25409;SDS011;13339;50.840;4.346;2022-07-23T04:40:49;29.37;;;17.40;;
25409;SDS011;13339;50.840;4.346;2022-07-23T04:43:15;24.97;;;18.40;;
25409;SDS011;13339;50.840;4.346;2022-07-23T04:45:40;23.67;;;16.47;;
25409;SDS011;13339;50.840;4.346;2022-07-23T04:48:06;23.73;;;16.67;;
25409;SDS011;13339;50.840;4.346;2022-07-23T04:50:32;24.40;;;16.33;;
25409;SDS011;13339;50.840;4.346;2022-07-23T04:52:57;21.43;;;15.50;;
25409;SDS011;13339;50.840;4.346;2022-07-23T04:55:23;24.33;;;16.10;;
25409;SDS011;13339;50.840;4.346;2022-07-23T04:57:49;20.97;;;16.07;;
25409;SDS011;13339;50.840;4.346;2022-07-23T05:00:15;21.67;;;15.97;;
25409;SDS011;13339;50.840;4.346;2022-07-23T05:02:41;20.77;;;15.43;;
25409;SDS011;13339;50.840;4.346;2022-07-23T05:05:06;18.80;;;14.60;;
25409;SDS011;13339;50.840;4.346;2022-07-23T05:07:32;20.83;;;13.97;;
25409;SDS011;13339;50.840;4.346;2022-07-23T05:09:58;20.63;;;13.90;;
25409;SDS011;13339;50.840;4.346;2022-07-23T05:12:23;20.27;;;13.73;;
25409;SDS011;13339;50.840;4.346;2022-07-23T05:14:49;20.10;;;15.20;;
25409;SDS011;13339;50.840;4.346;2022-07-23T05:17:14;25.33;;;14.40;;
25409;SDS011;13339;50.840;4.346;2022-07-23T05:19:40;18.40;;;14.40;;
25409;SDS011;13339;50.840;4.346;2022-07-23T05:22:06;21.37;;;14.63;;
25409;SDS011;13339;50.840;4.346;2022-07-23T05:24:31;24.20;;;15.53;;
25409;SDS011;13339;50.840;4.346;2022-07-23T05:26:57;17.63;;;13.43;;
25409;SDS011;13339;50.840;4.346;2022-07-23T05:29:22;18.83;;;14.33;;
25409;SDS011;13339;50.840;4.346;2022-07-23T05:31:48;20.30;;;14.80;;
25409;SDS011;13339;50.840;4.346;2022-07-23T05:34:13;24.40;;;14.07;;
25409;SDS011;13339;50.840;4.346;2022-07-23T05:36:39;16.93;;;13.80;;
25409;SDS011;13339;50.840;4.346;2022-07-23T05:39:05;18.10;;;14.40;;
25409;SDS011;13339;50.840;4.346;2022-07-23T05:41:30;15.90;;;14.20;;
25409;SDS011;13339;50.840;4.346;2022-07-23T05:43:56;21.20;;;15.27;;
25409;SDS011;13339;50.840;4.346;2022-07-23T05:46:21;21.33;;;14.67;;
25409;SDS011;13339;50.840;4.346;2022-07-23T05:48:47;20.77;;;16.00;;
25409;SDS011;13339;50.840;4.346;2022-07-23T05:51:23;19.83;;;15.47;;
25409;SDS011;13339;50.840;4.346;2022-07-23T05:53:50;22.07;;;16.30;;
25409;SDS011;13339;50.840;4.346;2022-07-23T05:56:16;18.60;;;15.37;;
25409;SDS011;13339;50.840;4.346;2022-07-23T05:58:42;19.90;;;15.63;;
25409;SDS011;13339;50.840;4.346;2022-07-23T06:01:08;18.40;;;14.97;;
25409;SDS011;13339;50.840;4.346;2022-07-23T06:03:34;19.87;;;15.10;;
25409;SDS011;13339;50.840;4.346;2022-07-23T06:05:59;20.10;;;15.57;;
25409;SDS011;13339;50.840;4.346;2022-07-23T06:08:25;22.57;;;16.80;;
25409;SDS011;13339;50.840;4.346;2022-07-23T06:10:51;19.83;;;14.97;;
25409;SDS011;13339;50.840;4.346;2022-07-23T06:13:19;22.03;;;15.33;;
25409;SDS011;13339;50.840;4.346;2022-07-23T06:15:45;19.23;;;14.87;;
25409;SDS011;13339;50.840;4.346;2022-07-23T06:18:11;20.00;;;15.70;;
25409;SDS011;13339;50.840;4.346;2022-07-23T06:20:37;19.87;;;15.20;;
25409;SDS011;13339;50.840;4.346;2022-07-23T06:23:03;22.43;;;16.60;;
25409;SDS011;13339;50.840;4.346;2022-07-23T06:25:29;19.27;;;15.80;;
25409;SDS011;13339;50.840;4.346;2022-07-23T06:27:55;19.80;;;14.97;;
25409;SDS011;13339;50.840;4.346;2022-07-23T06:30:21;18.37;;;14.07;;
25409;SDS011;13339;50.840;4.346;2022-07-23T06:32:47;18.13;;;14.83;;
25409;SDS011;13339;50.840;4.346;2022-07-23T06:35:13;19.43;;;14.53;;
25409;SDS011;13339;50.840;4.346;2022-07-23T06:37:40;18.57;;;14.40;;
25409;SDS011;13339;50.840;4.346;2022-07-23T06:40:06;16.03;;;13.77;;
25409;SDS011;13339;50.840;4.346;2022-07-23T06:42:32;17.87;;;13.73;;
25409;SDS011;13339;50.840;4.346;2022-07-23T06:44:57;19.80;;;13.57;;
25409;SDS011;13339;50.840;4.346;2022-07-23T06:47:23;18.70;;;13.33;;
25409;SDS011;13339;50.840;4.346;2022-07-23T06:49:49;20.90;;;12.53;;
25409;SDS011;13339;50.840;4.346;2022-07-23T06:52:14;15.77;;;12.53;;
25409;SDS011;13339;50.840;4.346;2022-07-23T06:54:40;18.47;;;14.03;;
25409;SDS011;13339;50.840;4.346;2022-07-23T06:57:05;21.67;;;14.40;;
25409;SDS011;13339;50.840;4.346;2022-07-23T06:59:31;20.77;;;12.37;;
25409;SDS011;13339;50.840;4.346;2022-07-23T07:01:58;18.60;;;13.27;;
25409;SDS011;13339;50.840;4.346;2022-07-23T07:04:23;15.93;;;12.47;;
25409;SDS011;13339;50.840;4.346;2022-07-23T07:06:49;19.27;;;12.43;;
25409;SDS011;13339;50.840;4.346;2022-07-23T07:09:15;19.90;;;13.77;;
25409;SDS011;13339;50.840;4.346;2022-07-23T07:11:40;23.63;;;14.47;;
25409;SDS011;13339;50.840;4.346;2022-07-23T07:14:06;18.33;;;13.50;;
25409;SDS011;13339;50.840;4.346;2022-07-23T07:16:32;21.00;;;13.90;;
25409;SDS011;13339;50.840;4.346;2022-07-23T07:18:57;18.30;;;14.70;;
25409;SDS011;13339;50.840;4.346;2022-07-23T07:21:23;20.23;;;13.10;;
25409;SDS011;13339;50.840;4.346;2022-07-23T07:23:48;16.87;;;13.77;;
25409;SDS011;13339;50.840;4.346;2022-07-23T07:26:14;18.77;;;13.37;;
25409;SDS011;13339;50.840;4.346;2022-07-23T07:28:40;18.03;;;14.37;;
25409;SDS011;13339;50.840;4.346;2022-07-23T07:31:05;17.73;;;13.63;;
25409;SDS011;13339;50.840;4.346;2022-07-23T07:33:31;18.57;;;13.10;;
25409;SDS011;13339;50.840;4.346;2022-07-23T07:35:57;19.30;;;14.00;;
25409;SDS011;13339;50.840;4.346;2022-07-23T07:38:23;23.63;;;12.60;;
25409;SDS011;13339;50.840;4.346;2022-07-23T07:40:49;17.50;;;13.40;;
25409;SDS011;13339;50.840;4.346;2022-07-23T07:43:14;20.50;;;13.50;;
25409;SDS011;13339;50.840;4.346;2022-07-23T07:45:40;17.07;;;13.33;;
25409;SDS011;13339;50.840;4.346;2022-07-23T07:48:06;17.57;;;13.17;;
25409;SDS011;13339;50.840;4.346;2022-07-23T07:50:32;16.93;;;13.10;;
25409;SDS011;13339;50.840;4.346;2022-07-23T07:52:57;16.93;;;13.30;;
25409;SDS011;13339;50.840;4.346;2022-07-23T07:55:23;20.03;;;13.63;;
25409;SDS011;13339;50.840;4.346;2022-07-23T07:57:48;18.37;;;13.27;;
25409;SDS011;13339;50.840;4.346;2022-07-23T08:00:14;16.50;;;12.73;;
25409;SDS011;13339;50.840;4.346;2022-07-23T08:05:10;15.17;;;11.67;;
25409;SDS011;13339;50.840;4.346;2022-07-23T08:07:35;15.10;;;11.37;;
25409;SDS011;13339;50.840;4.346;2022-07-23T08:10:02;16.40;;;11.57;;
25409;SDS011;13339;50.840;4.346;2022-07-23T08:12:37;16.73;;;12.23;;
25409;SDS011;13339;50.840;4.346;2022-07-23T08:15:03;12.07;;;10.07;;
25409;SDS011;13339;50.840;4.346;2022-07-23T08:17:30;17.53;;;10.57;;
25409;SDS011;13339;50.840;4.346;2022-07-23T08:19:55;16.77;;;11.57;;
25409;SDS011;13339;50.840;4.346;2022-07-23T08:22:21;20.77;;;11.10;;
25409;SDS011;13339;50.840;4.346;2022-07-23T08:24:47;13.87;;;10.23;;
25409;SDS011;13339;50.840;4.346;2022-07-23T08:27:12;11.68;;;9.13;;
25409;SDS011;13339;50.840;4.346;2022-07-23T08:29:38;10.98;;;9.50;;
25409;SDS011;13339;50.840;4.346;2022-07-23T08:32:03;18.02;;;10.02;;
25409;SDS011;13339;50.840;4.346;2022-07-23T08:34:29;13.80;;;9.90;;
25409;SDS011;13339;50.840;4.346;2022-07-23T08:36:55;16.83;;;11.07;;
25409;SDS011;13339;50.840;4.346;2022-07-23T08:39:21;14.68;;;10.38;;
25409;SDS011;13339;50.840;4.346;2022-07-23T08:41:46;11.80;;;9.15;;
25409;SDS011;13339;50.840;4.346;2022-07-23T08:44:13;17.30;;;10.70;;
25409;SDS011;13339;50.840;4.346;2022-07-23T08:46:41;12.43;;;8.90;;
25409;SDS011;13339;50.840;4.346;2022-07-23T08:49:08;13.73;;;9.97;;
25409;SDS011;13339;50.840;4.346;2022-07-23T08:51:34;12.03;;;9.30;;
25409;SDS011;13339;50.840;4.346;2022-07-23T08:54:00;14.40;;;9.90;;
25409;SDS011;13339;50.840;4.346;2022-07-23T08:56:26;12.53;;;9.27;;
25409;SDS011;13339;50.840;4.346;2022-07-23T08:58:53;13.50;;;11.07;;
25409;SDS011;13339;50.840;4.346;2022-07-23T09:01:19;16.90;;;10.17;;
25409;SDS011;13339;50.840;4.346;2022-07-23T09:03:45;16.03;;;9.60;;
25409;SDS011;13339;50.840;4.346;2022-07-23T09:06:10;10.17;;;8.53;;
25409;SDS011;13339;50.840;4.346;2022-07-23T09:08:40;14.97;;;9.80;;
25409;SDS011;13339;50.840;4.346;2022-07-23T09:11:07;12.70;;;9.40;;
25409;SDS011;13339;50.840;4.346;2022-07-23T09:13:39;11.53;;;9.33;;
25409;SDS011;13339;50.840;4.346;2022-07-23T09:16:30;12.13;;;9.83;;
25409;SDS011;13339;50.840;4.346;2022-07-23T09:21:27;15.33;;;11.83;;
25409;SDS011;13339;50.840;4.346;2022-07-23T09:23:58;19.63;;;11.70;;
25409;SDS011;13339;50.840;4.346;2022-07-23T09:26:32;14.83;;;10.90;;
25409;SDS011;13339;50.840;4.346;2022-07-23T09:31:31;14.37;;;10.03;;
25409;SDS011;13339;50.840;4.346;2022-07-23T09:37:11;14.90;;;9.63;;
25409;SDS011;13339;50.840;4.346;2022-07-23T09:39:42;16.40;;;9.83;;
25409;SDS011;13339;50.840;4.346;2022-07-23T09:42:18;13.93;;;9.90;;
25409;SDS011;13339;50.840;4.346;2022-07-23T09:44:49;11.37;;;9.40;;
25409;SDS011;13339;50.840;4.346;2022-07-23T09:47:17;14.43;;;9.73;;
25409;SDS011;13339;50.840;4.346;2022-07-23T09:52:34;12.43;;;9.60;;
25409;SDS011;13339;50.840;4.346;2022-07-23T09:55:12;11.20;;;9.30;;
25409;SDS011;13339;50.840;4.346;2022-07-23T09:57:40;19.17;;;10.13;;
25409;SDS011;13339;50.840;4.346;2022-07-23T10:00:07;11.40;;;9.50;;
25409;SDS011;13339;50.840;4.346;2022-07-23T10:02:36;14.53;;;10.20;;
25409;SDS011;13339;50.840;4.346;2022-07-23T10:05:02;17.00;;;9.83;;
25409;SDS011;13339;50.840;4.346;2022-07-23T10:07:31;12.73;;;10.20;;
25409;SDS011;13339;50.840;4.346;2022-07-23T10:09:59;15.37;;;9.97;;
25409;SDS011;13339;50.840;4.346;2022-07-23T10:12:25;13.53;;;9.43;;
25409;SDS011;13339;50.840;4.346;2022-07-23T10:14:54;11.03;;;9.10;;
25409;SDS011;13339;50.840;4.346;2022-07-23T10:17:21;12.10;;;9.30;;
25409;SDS011;13339;50.840;4.346;2022-07-23T10:19:47;13.20;;;7.60;;
25409;SDS011;13339;50.840;4.346;2022-07-23T10:22:29;11.37;;;7.40;;
25409;SDS011;13339;50.840;4.346;2022-07-23T10:24:59;11.77;;;8.07;;
25409;SDS011;13339;50.840;4.346;2022-07-23T10:30:07;12.70;;;7.97;;
25409;SDS011;13339;50.840;4.346;2022-07-23T10:38:25;8.20;;;7.10;;
25409;SDS011;13339;50.840;4.346;2022-07-23T10:41:00;10.53;;;6.87;;
25409;SDS011;13339;50.840;4.346;2022-07-23T10:43:27;10.50;;;7.50;;
25409;SDS011;13339;50.840;4.346;2022-07-23T10:45:54;8.82;;;6.43;;
25409;SDS011;13339;50.840;4.346;2022-07-23T10:48:23;10.02;;;6.65;;
25409;SDS011;13339;50.840;4.346;2022-07-23T11:02:40;8.10;;;7.28;;
25409;SDS011;13339;50.840;4.346;2022-07-23T11:05:08;11.43;;;7.43;;
25409;SDS011;13339;50.840;4.346;2022-07-23T11:07:35;11.23;;;6.68;;
25409;SDS011;13339;50.840;4.346;2022-07-23T11:37:04;13.85;;;8.57;;
25409;SDS011;13339;50.840;4.346;2022-07-23T11:39:52;9.35;;;8.30;;
25409;SDS011;13339;50.840;4.346;2022-07-23T11:42:22;8.52;;;7.30;;
25409;SDS011;13339;50.840;4.346;2022-07-23T11:44:49;11.55;;;8.30;;
25409;SDS011;13339;50.840;4.346;2022-07-23T11:47:20;10.60;;;8.13;;
25409;SDS011;13339;50.840;4.346;2022-07-23T11:49:55;9.30;;;6.35;;
25409;SDS011;13339;50.840;4.346;2022-07-23T11:52:22;10.75;;;6.75;;
25409;SDS011;13339;50.840;4.346;2022-07-23T11:54:49;8.57;;;7.03;;
25409;SDS011;13339;50.840;4.346;2022-07-23T11:57:25;7.43;;;6.57;;
25409;SDS011;13339;50.840;4.346;2022-07-23T11:59:53;8.20;;;6.88;;
25409;SDS011;13339;50.840;4.346;2022-07-23T12:02:22;10.05;;;7.95;;
25409;SDS011;13339;50.840;4.346;2022-07-23T12:04:48;13.32;;;7.68;;
25409;SDS011;13339;50.840;4.346;2022-07-23T12:10:04;9.82;;;6.60;;
25409;SDS011;13339;50.840;4.346;2022-07-23T12:12:46;10.90;;;7.18;;
25409;SDS011;13339;50.840;4.346;2022-07-23T12:15:18;10.60;;;7.38;;
25409;SDS011;13339;50.840;4.346;2022-07-23T12:17:46;8.50;;;7.45;;
25409;SDS011;13339;50.840;4.346;2022-07-23T12:20:14;8.20;;;7.40;;
25409;SDS011;13339;50.840;4.346;2022-07-23T12:22:45;11.38;;;8.48;;
25409;SDS011;13339;50.840;4.346;2022-07-23T12:25:13;10.75;;;7.90;;
25409;SDS011;13339;50.840;4.346;2022-07-23T12:27:40;11.65;;;7.63;;
25409;SDS011;13339;50.840;4.346;2022-07-23T12:31:07;10.43;;;7.75;;
25409;SDS011;13339;50.840;4.346;2022-07-23T12:33:03;10.00;;;7.90;;
25409;SDS011;13339;50.840;4.346;2022-07-23T12:35:31;11.20;;;7.03;;
25409;SDS011;13339;50.840;4.346;2022-07-23T12:38:11;12.95;;;8.35;;
25409;SDS011;13339;50.840;4.346;2022-07-23T12:40:43;12.02;;;7.40;;
25409;SDS011;13339;50.840;4.346;2022-07-23T12:48:19;10.40;;;8.05;;
25409;SDS011;13339;50.840;4.346;2022-07-23T12:50:49;8.73;;;6.80;;
25409;SDS011;13339;50.840;4.346;2022-07-23T12:53:16;12.77;;;7.65;;
25409;SDS011;13339;50.840;4.346;2022-07-23T12:55:44;7.60;;;6.53;;
25409;SDS011;13339;50.840;4.346;2022-07-23T12:58:12;7.05;;;6.40;;
25409;SDS011;13339;50.840;4.346;2022-07-23T13:03:23;9.70;;;5.90;;
25409;SDS011;13339;50.840;4.346;2022-07-23T13:05:49;7.97;;;5.50;;
25409;SDS011;13339;50.840;4.346;2022-07-23T13:08:15;9.73;;;5.75;;
25409;SDS011;13339;50.840;4.346;2022-07-23T13:10:40;7.65;;;5.97;;
25409;SDS011;13339;50.840;4.346;2022-07-23T13:13:09;6.32;;;5.13;;
25409;SDS011;13339;50.840;4.346;2022-07-23T13:15:35;7.18;;;6.03;;
25409;SDS011;13339;50.840;4.346;2022-07-23T13:18:01;6.55;;;5.28;;
25409;SDS011;13339;50.840;4.346;2022-07-23T13:20:27;6.68;;;5.15;;
25409;SDS011;13339;50.840;4.346;2022-07-23T13:22:53;6.07;;;5.03;;
25409;SDS011;13339;50.840;4.346;2022-07-23T13:25:19;8.15;;;5.40;;
25409;SDS011;13339;50.840;4.346;2022-07-23T13:27:45;7.03;;;5.07;;
25409;SDS011;13339;50.840;4.346;2022-07-23T13:30:10;10.25;;;4.50;;
25409;SDS011;13339;50.840;4.346;2022-07-23T13:32:36;6.38;;;4.80;;
25409;SDS011;13339;50.840;4.346;2022-07-23T13:35:02;7.20;;;4.38;;
25409;SDS011;13339;50.840;4.346;2022-07-23T13:37:28;6.13;;;4.55;;
25409;SDS011;13339;50.840;4.346;2022-07-23T13:39:54;6.90;;;4.90;;
25409;SDS011;13339;50.840;4.346;2022-07-23T13:42:20;5.97;;;4.82;;
25409;SDS011;13339;50.840;4.346;2022-07-23T13:44:45;5.95;;;4.80;;
25409;SDS011;13339;50.840;4.346;2022-07-23T13:47:11;7.75;;;6.95;;
25409;SDS011;13339;50.840;4.346;2022-07-23T13:49:37;7.05;;;4.68;;
25409;SDS011;13339;50.840;4.346;2022-07-23T13:52:03;7.22;;;4.63;;
25409;SDS011;13339;50.840;4.346;2022-07-23T13:54:29;6.63;;;4.65;;
25409;SDS011;13339;50.840;4.346;2022-07-23T13:56:55;7.80;;;4.72;;
25409;SDS011;13339;50.840;4.346;2022-07-23T13:59:20;5.65;;;4.65;;
25409;SDS011;13339;50.840;4.346;2022-07-23T14:01:46;5.72;;;4.63;;
25409;SDS011;13339;50.840;4.346;2022-07-23T14:04:12;5.28;;;4.78;;
25409;SDS011;13339;50.840;4.346;2022-07-23T14:06:38;7.78;;;4.70;;
25409;SDS011;13339;50.840;4.346;2022-07-23T14:09:03;5.43;;;4.20;;
25409;SDS011;13339;50.840;4.346;2022-07-23T14:11:29;7.88;;;5.45;;
25409;SDS011;13339;50.840;4.346;2022-07-23T14:13:56;10.80;;;4.78;;
25409;SDS011;13339;50.840;4.346;2022-07-23T14:16:22;9.10;;;5.03;;
25409;SDS011;13339;50.840;4.346;2022-07-23T14:18:48;7.18;;;4.55;;
25409;SDS011;13339;50.840;4.346;2022-07-23T14:21:13;5.25;;;4.75;;
25409;SDS011;13339;50.840;4.346;2022-07-23T14:23:39;6.25;;;4.47;;
25409;SDS011;13339;50.840;4.346;2022-07-23T14:26:04;6.28;;;4.97;;
25409;SDS011;13339;50.840;4.346;2022-07-23T14:28:32;5.65;;;4.63;;
25409;SDS011;13339;50.840;4.346;2022-07-23T14:30:58;5.22;;;4.70;;
25409;SDS011;13339;50.840;4.346;2022-07-23T14:33:24;5.28;;;4.45;;
25409;SDS011;13339;50.840;4.346;2022-07-23T14:35:50;5.63;;;4.32;;
25409;SDS011;13339;50.840;4.346;2022-07-23T14:38:15;10.20;;;4.82;;
25409;SDS011;13339;50.840;4.346;2022-07-23T14:40:41;8.57;;;4.75;;
25409;SDS011;13339;50.840;4.346;2022-07-23T14:43:07;7.40;;;4.40;;
25409;SDS011;13339;50.840;4.346;2022-07-23T14:45:33;5.97;;;4.70;;
25409;SDS011;13339;50.840;4.346;2022-07-23T14:47:58;8.80;;;4.90;;
25409;SDS011;13339;50.840;4.346;2022-07-23T14:50:24;7.22;;;5.00;;
25409;SDS011;13339;50.840;4.346;2022-07-23T14:52:49;5.18;;;4.63;;
25409;SDS011;13339;50.840;4.346;2022-07-23T14:55:15;7.15;;;4.75;;
25409;SDS011;13339;50.840;4.346;2022-07-23T14:57:43;5.65;;;4.53;;
25409;SDS011;13339;50.840;4.346;2022-07-23T15:00:09;7.22;;;4.72;;
25409;SDS011;13339;50.840;4.346;2022-07-23T15:02:35;6.72;;;4.80;;
25409;SDS011;13339;50.840;4.346;2022-07-23T15:05:01;5.95;;;5.05;;
25409;SDS011;13339;50.840;4.346;2022-07-23T15:07:27;9.30;;;5.03;;
25409;SDS011;13339;50.840;4.346;2022-07-23T15:09:54;5.55;;;4.60;;
25409;SDS011;13339;50.840;4.346;2022-07-23T15:12:20;5.95;;;5.40;;
25409;SDS011;13339;50.840;4.346;2022-07-23T15:14:45;11.20;;;5.38;;
25409;SDS011;13339;50.840;4.346;2022-07-23T15:17:11;7.63;;;5.20;;
25409;SDS011;13339;50.840;4.346;2022-07-23T15:19:36;5.57;;;5.13;;
25409;SDS011;13339;50.840;4.346;2022-07-23T15:22:02;6.93;;;5.72;;
25409;SDS011;13339;50.840;4.346;2022-07-23T15:24:29;6.03;;;5.53;;
25409;SDS011;13339;50.840;4.346;2022-07-23T15:26:55;5.78;;;5.15;;
25409;SDS011;13339;50.840;4.346;2022-07-23T15:29:21;5.78;;;5.20;;
25409;SDS011;13339;50.840;4.346;2022-07-23T15:31:47;6.57;;;5.03;;
25409;SDS011;13339;50.840;4.346;2022-07-23T15:34:12;5.93;;;5.43;;
25409;SDS011;13339;50.840;4.346;2022-07-23T15:36:38;6.13;;;5.10;;